Time;durP1;ratioP1;P1;durP2;ratioP2;P2;SDS_P1;SDS_P2;PMS_P1;PMS_P2;Temp;Humidity;BMP_temperature;BMP_pressure;BME280_temperature;BME280_humidity;BME280_pressure;Samples;Min_cycle;Max_cycle;Signal;HPM_P1;HPM_P2
2023/03/23 00:01:36;;;;;;;;;1.00;1.00;;;;;;;;5086883;28;8849;-89
2023/03/23 00:04:05;;;;;;;;;0.00;0.00;;;;;;;;5071641;28;8837;-89
2023/03/23 00:06:36;;;;;;;;;0.25;0.25;;;;;;;;5062260;28;8967;-89
2023/03/23 00:09:23;;;;;;;;;2.00;0.25;;;;;;;;5066265;28;8841;-89
2023/03/23 00:11:52;;;;;;;;;1.00;1.00;;;;;;;;5069010;28;8876;-91
2023/03/23 00:14:22;;;;;;;;;2.00;1.00;;;;;;;;5078725;28;8850;-89
2023/03/23 00:16:51;;;;;;;;;2.00;0.00;;;;;;;;5070170;28;8853;-88
2023/03/23 00:19:19;;;;;;;;;0.00;0.00;;;;;;;;5068042;28;8878;-90
2023/03/23 00:21:46;;;;;;;;;0.25;0.25;;;;;;;;5073271;28;8864;-88
2023/03/23 00:24:17;;;;;;;;;0.00;0.00;;;;;;;;5073734;28;8857;-88
2023/03/23 00:26:45;;;;;;;;;1.75;1.00;;;;;;;;5074002;28;8852;-88
2023/03/23 00:29:16;;;;;;;;;0.00;0.00;;;;;;;;5043020;28;8852;-88
2023/03/23 00:31:46;;;;;;;;;1.00;1.00;;;;;;;;5069923;28;8958;-89
2023/03/23 00:34:18;;;;;;;;;0.25;0.25;;;;;;;;5070658;28;8864;-88
2023/03/23 00:36:46;;;;;;;;;0.25;0.25;;;;;;;;5070699;28;8848;-88
2023/03/23 00:39:16;;;;;;;;;1.75;0.25;;;;;;;;5070578;28;8951;-89
2023/03/23 00:41:45;;;;;;;;;1.75;0.25;;;;;;;;5052666;28;8883;-89
2023/03/23 00:44:17;;;;;;;;;1.00;1.00;;;;;;;;5070403;28;8868;-89
2023/03/23 00:46:45;;;;;;;;;0.00;0.00;;;;;;;;5067872;28;8843;-89
2023/03/23 00:49:15;;;;;;;;;0.00;0.00;;;;;;;;5063450;28;8848;-88
2023/03/23 00:51:43;;;;;;;;;0.50;0.00;;;;;;;;5064351;28;8862;-89
2023/03/23 00:54:11;;;;;;;;;1.00;1.00;;;;;;;;5070287;28;8975;-90
2023/03/23 00:56:40;;;;;;;;;1.75;0.75;;;;;;;;5069768;28;8854;-87
2023/03/23 00:59:07;;;;;;;;;0.50;0.50;;;;;;;;5070251;28;8860;-89
2023/03/23 01:01:35;;;;;;;;;0.25;0.25;;;;;;;;5051961;28;8813;-90
2023/03/23 01:04:04;;;;;;;;;1.00;1.00;;;;;;;;5070084;28;8879;-89
2023/03/23 01:06:38;;;;;;;;;1.00;1.00;;;;;;;;5070483;28;9007;-87
2023/03/23 01:09:07;;;;;;;;;1.00;1.00;;;;;;;;5070086;28;8878;-87
2023/03/23 01:11:35;;;;;;;;;2.25;0.00;;;;;;;;5060924;28;8848;-89
2023/03/23 01:14:02;;;;;;;;;0.00;0.00;;;;;;;;5069811;28;9003;-86
2023/03/23 01:16:30;;;;;;;;;0.00;0.00;;;;;;;;5067695;28;8868;-88
2023/03/23 01:18:57;;;;;;;;;0.00;0.00;;;;;;;;5070394;28;8844;-87
2023/03/23 01:21:25;;;;;;;;;0.00;0.00;;;;;;;;5066059;28;8953;-88
2023/03/23 01:23:55;;;;;;;;;0.00;0.00;;;;;;;;5074722;28;8844;-88
2023/03/23 01:26:24;;;;;;;;;0.50;0.00;;;;;;;;5077651;28;8840;-90
2023/03/23 01:28:52;;;;;;;;;0.50;0.00;;;;;;;;5080425;28;8884;-90
2023/03/23 01:31:20;;;;;;;;;0.00;0.00;;;;;;;;5074498;28;8815;-89
2023/03/23 01:33:50;;;;;;;;;0.00;0.00;;;;;;;;5070077;28;8846;-88
2023/03/23 01:36:20;;;;;;;;;1.25;0.50;;;;;;;;5069020;28;8825;-89
2023/03/23 01:38:49;;;;;;;;;0.00;0.00;;;;;;;;5069550;28;8864;-86
2023/03/23 01:41:19;;;;;;;;;1.25;1.00;;;;;;;;5070244;28;8864;-87
2023/03/23 01:43:58;;;;;;;;;0.75;0.75;;;;;;;;5070368;28;9600;-87
2023/03/23 01:46:27;;;;;;;;;1.50;0.00;;;;;;;;5068697;28;8870;-90
2023/03/23 01:48:56;;;;;;;;;0.00;0.00;;;;;;;;5048514;28;8998;-87
2023/03/23 01:51:23;;;;;;;;;0.00;0.00;;;;;;;;5069520;28;8887;-87
2023/03/23 01:53:55;;;;;;;;;0.50;0.50;;;;;;;;5069862;28;8843;-87
2023/03/23 01:56:29;;;;;;;;;1.25;0.50;;;;;;;;5077223;28;8851;-86
2023/03/23 01:58:57;;;;;;;;;0.75;0.75;;;;;;;;5069631;28;8856;-88
2023/03/23 02:01:25;;;;;;;;;2.25;1.00;;;;;;;;5069642;28;8784;-87
2023/03/23 02:03:55;;;;;;;;;1.00;1.00;;;;;;;;5052846;28;8869;-88
2023/03/23 02:06:24;;;;;;;;;0.75;0.75;;;;;;;;5052373;28;8864;-88
2023/03/23 02:08:53;;;;;;;;;1.00;1.00;;;;;;;;5070803;28;8886;-86
2023/03/23 02:11:22;;;;;;;;;1.25;0.50;;;;;;;;5071030;28;8856;-87
2023/03/23 02:13:51;;;;;;;;;3.25;2.25;;;;;;;;5071488;28;8923;-87
2023/03/23 02:16:26;;;;;;;;;1.00;1.00;;;;;;;;5064225;28;9058;-87
2023/03/23 02:18:59;;;;;;;;;0.00;0.00;;;;;;;;5068903;28;8971;-90
2023/03/23 02:22:01;;;;;;;;;1.00;1.00;;;;;;;;5068234;28;8840;-90
2023/03/23 02:24:52;;;;;;;;;1.00;1.00;;;;;;;;5068362;28;8962;-87
2023/03/23 02:27:31;;;;;;;;;1.00;1.00;;;;;;;;5068512;28;8954;-89
2023/03/23 02:30:20;;;;;;;;;2.33;1.00;;;;;;;;5068258;28;8852;-91
2023/03/23 02:33:09;;;;;;;;;1.00;1.00;;;;;;;;5070454;28;8922;-88
2023/03/23 02:35:39;;;;;;;;;2.00;2.00;;;;;;;;5069094;28;8930;-87
2023/03/23 02:38:09;;;;;;;;;5.67;2.33;;;;;;;;5074570;28;8961;-88
2023/03/23 02:40:40;;;;;;;;;1.00;1.00;;;;;;;;5073859;28;9267;-90
2023/03/23 02:43:10;;;;;;;;;2.00;2.00;;;;;;;;5072006;28;9033;-86
2023/03/23 02:45:39;;;;;;;;;1.33;1.33;;;;;;;;5075942;28;9173;-87
2023/03/23 02:48:09;;;;;;;;;2.00;2.00;;;;;;;;5074574;28;8940;-88
2023/03/23 02:50:38;;;;;;;;;1.00;1.00;;;;;;;;5055033;28;8929;-87
2023/03/23 02:53:09;;;;;;;;;1.00;1.00;;;;;;;;5071999;28;8911;-89
2023/03/23 02:55:41;;;;;;;;;0.33;0.33;;;;;;;;5069608;28;9123;-88
2023/03/23 02:58:09;;;;;;;;;1.00;1.00;;;;;;;;5071479;28;9064;-88
2023/03/23 03:00:37;;;;;;;;;1.33;1.33;;;;;;;;5057863;28;9026;-88
2023/03/23 03:03:06;;;;;;;;;0.00;0.00;;;;;;;;5071509;28;9695;-88
2023/03/23 03:05:42;;;;;;;;;2.00;2.00;;;;;;;;5072116;28;8934;-88
2023/03/23 03:08:15;;;;;;;;;1.00;1.00;;;;;;;;5072920;28;8856;-87
2023/03/23 03:10:48;;;;;;;;;2.00;0.00;;;;;;;;5072249;28;8856;-88
2023/03/23 03:13:24;;;;;;;;;0.75;0.75;;;;;;;;5073446;28;8860;-88
2023/03/23 03:15:55;;;;;;;;;0.50;0.00;;;;;;;;5064392;28;8858;-90
2023/03/23 03:18:26;;;;;;;;;0.50;0.50;;;;;;;;5076981;28;8861;-89
2023/03/23 03:20:58;;;;;;;;;0.75;0.75;;;;;;;;5070381;28;8839;-89
2023/03/23 03:23:26;;;;;;;;;1.00;1.00;;;;;;;;5074123;28;8844;-88
2023/03/23 03:25:57;;;;;;;;;0.00;0.00;;;;;;;;5073158;28;8927;-87
2023/03/23 03:28:26;;;;;;;;;0.00;0.00;;;;;;;;5071800;28;8953;-89
2023/03/23 03:30:55;;;;;;;;;1.00;1.00;;;;;;;;5071241;28;8920;-88
2023/03/23 03:33:25;;;;;;;;;1.00;1.00;;;;;;;;5070121;28;8856;-89
2023/03/23 03:35:56;;;;;;;;;3.00;1.00;;;;;;;;5070211;28;8946;-90
2023/03/23 03:38:23;;;;;;;;;0.25;0.25;;;;;;;;5070307;28;8867;-88
2023/03/23 03:40:51;;;;;;;;;1.50;0.50;;;;;;;;5071586;28;8853;-88
2023/03/23 03:43:19;;;;;;;;;0.00;0.00;;;;;;;;5072359;28;8840;-88
2023/03/23 03:45:47;;;;;;;;;0.25;0.25;;;;;;;;5074339;28;8874;-87
2023/03/23 03:48:14;;;;;;;;;0.50;0.50;;;;;;;;5072210;28;9584;-89
2023/03/23 03:50:41;;;;;;;;;1.00;1.00;;;;;;;;5066948;28;8844;-89
2023/03/23 03:53:13;;;;;;;;;0.50;0.50;;;;;;;;5064244;28;8880;-89
2023/03/23 03:55:45;;;;;;;;;1.00;1.00;;;;;;;;5063853;28;8939;-90
2023/03/23 03:58:12;;;;;;;;;0.00;0.00;;;;;;;;5073127;28;8852;-88
2023/03/23 04:00:41;;;;;;;;;0.67;0.67;;;;;;;;5071409;28;8811;-88
2023/03/23 04:03:08;;;;;;;;;1.25;1.25;;;;;;;;5076960;28;8941;-88
2023/03/23 04:05:37;;;;;;;;;1.00;1.00;;;;;;;;5074034;28;8855;-87
2023/03/23 04:08:05;;;;;;;;;0.50;0.00;;;;;;;;5069287;28;8942;-90
2023/03/23 04:10:34;;;;;;;;;1.00;1.00;;;;;;;;5071781;28;8928;-88
2023/03/23 04:13:01;;;;;;;;;1.00;1.00;;;;;;;;5063086;28;8843;-89
2023/03/23 04:15:29;;;;;;;;;1.25;1.25;;;;;;;;5069739;28;8886;-86
2023/03/23 04:17:56;;;;;;;;;1.00;1.00;;;;;;;;5066148;28;8970;-89
2023/03/23 04:20:24;;;;;;;;;1.00;1.00;;;;;;;;5070547;28;8868;-89
2023/03/23 04:22:54;;;;;;;;;1.67;1.67;;;;;;;;5070687;28;8921;-90
2023/03/23 04:25:22;;;;;;;;;3.00;1.00;;;;;;;;5070100;28;8954;-89
2023/03/23 04:27:53;;;;;;;;;1.00;1.00;;;;;;;;5070325;28;8952;-87
2023/03/23 04:30:21;;;;;;;;;0.00;0.00;;;;;;;;5069664;28;8844;-87
2023/03/23 04:32:51;;;;;;;;;2.00;2.00;;;;;;;;5071061;28;8983;-88
2023/03/23 04:35:25;;;;;;;;;0.50;0.50;;;;;;;;5058901;28;8941;-86
2023/03/23 04:37:54;;;;;;;;;2.00;2.00;;;;;;;;5071010;28;8852;-88
2023/03/23 04:40:22;;;;;;;;;1.50;1.50;;;;;;;;5069315;28;9068;-93
2023/03/23 04:42:51;;;;;;;;;1.00;1.00;;;;;;;;5070569;28;8926;-85
2023/03/23 04:45:21;;;;;;;;;1.00;1.00;;;;;;;;5068520;28;8952;-92
2023/03/23 04:47:52;;;;;;;;;1.00;1.00;;;;;;;;5072940;28;8898;-91
2023/03/23 04:50:23;;;;;;;;;1.33;1.33;;;;;;;;5069511;28;9019;-91
2023/03/23 04:52:51;;;;;;;;;2.00;2.00;;;;;;;;5064891;28;9087;-93
2023/03/23 04:55:20;;;;;;;;;2.00;1.00;;;;;;;;5068542;28;9023;-92
2023/03/23 04:57:50;;;;;;;;;1.00;1.00;;;;;;;;5069227;28;8965;-94
2023/03/23 05:00:18;;;;;;;;;1.00;1.00;;;;;;;;5072359;28;9057;-92
2023/03/23 05:02:51;;;;;;;;;1.00;1.00;;;;;;;;5057133;28;8959;-94
2023/03/23 05:05:19;;;;;;;;;1.00;1.00;;;;;;;;5073078;28;9003;-92
2023/03/23 05:07:46;;;;;;;;;1.00;1.00;;;;;;;;5071927;28;8988;-90
2023/03/23 05:10:15;;;;;;;;;0.33;0.33;;;;;;;;5073854;28;9225;-88
2023/03/23 05:12:42;;;;;;;;;1.33;1.33;;;;;;;;5074758;28;8945;-88
2023/03/23 05:15:16;;;;;;;;;0.00;0.00;;;;;;;;5065456;28;8947;-89
2023/03/23 05:17:44;;;;;;;;;1.67;1.67;;;;;;;;5073723;28;9719;-90
2023/03/23 05:20:14;;;;;;;;;1.00;1.00;;;;;;;;5071914;28;9067;-89
2023/03/23 05:22:43;;;;;;;;;1.00;1.00;;;;;;;;5069252;28;9014;-87
2023/03/23 05:25:11;;;;;;;;;1.00;1.00;;;;;;;;5071859;28;8860;-90
2023/03/23 05:27:42;;;;;;;;;1.33;1.33;;;;;;;;5070141;28;8860;-92
2023/03/23 05:30:15;;;;;;;;;0.00;0.00;;;;;;;;5061395;28;8924;-89
2023/03/23 05:32:42;;;;;;;;;0.25;0.25;;;;;;;;5069772;28;8974;-87
2023/03/23 05:35:11;;;;;;;;;1.67;1.67;;;;;;;;5070073;28;8939;-88
2023/03/23 05:37:39;;;;;;;;;1.00;1.00;;;;;;;;5069429;28;9064;-88
2023/03/23 05:40:07;;;;;;;;;1.00;1.00;;;;;;;;5070006;28;9080;-89
2023/03/23 05:42:35;;;;;;;;;1.00;1.00;;;;;;;;5069554;28;8967;-89
2023/03/23 05:45:05;;;;;;;;;4.00;1.00;;;;;;;;5074281;28;9040;-88
2023/03/23 05:47:37;;;;;;;;;1.00;1.00;;;;;;;;5076614;28;8952;-86
2023/03/23 05:50:08;;;;;;;;;1.00;1.00;;;;;;;;5067697;28;8996;-87
2023/03/23 05:52:38;;;;;;;;;1.00;1.00;;;;;;;;5069381;28;8973;-85
2023/03/23 05:55:08;;;;;;;;;0.00;0.00;;;;;;;;5070147;28;9064;-86
2023/03/23 05:57:36;;;;;;;;;1.00;1.00;;;;;;;;5071409;28;9088;-86
2023/03/23 06:00:16;;;;;;;;;0.33;0.33;;;;;;;;5070775;28;9054;-86
2023/03/23 06:02:48;;;;;;;;;1.00;1.00;;;;;;;;5067698;28;8904;-85
2023/03/23 06:05:16;;;;;;;;;1.00;1.00;;;;;;;;5069872;28;9805;-87
2023/03/23 06:07:44;;;;;;;;;0.00;0.00;;;;;;;;5069086;28;9091;-87
2023/03/23 06:10:12;;;;;;;;;0.00;0.00;;;;;;;;5072884;28;9120;-88
2023/03/23 06:12:40;;;;;;;;;5.00;2.00;;;;;;;;5075367;28;9097;-89
2023/03/23 06:15:10;;;;;;;;;1.00;1.00;;;;;;;;5080265;28;9085;-87
2023/03/23 06:17:38;;;;;;;;;2.00;2.00;;;;;;;;5069832;28;9050;-86
2023/03/23 06:20:10;;;;;;;;;1.00;1.00;;;;;;;;5082947;28;9185;-88
2023/03/23 06:22:39;;;;;;;;;2.33;2.00;;;;;;;;5072074;28;9230;-93
2023/03/23 06:25:11;;;;;;;;;2.00;2.00;;;;;;;;5074756;28;9217;-88
2023/03/23 06:27:40;;;;;;;;;2.00;2.00;;;;;;;;5073999;28;9171;-91
2023/03/23 06:30:09;;;;;;;;;1.00;1.00;;;;;;;;5081478;28;9162;-88
2023/03/23 06:32:36;;;;;;;;;0.00;0.00;;;;;;;;5072667;28;9181;-91
2023/03/23 06:35:04;;;;;;;;;0.00;0.00;;;;;;;;5072929;28;8990;-89
2023/03/23 06:37:37;;;;;;;;;1.67;1.67;;;;;;;;5073295;28;9121;-88
2023/03/23 06:40:06;;;;;;;;;1.00;1.00;;;;;;;;5072483;28;9157;-91
2023/03/23 06:42:34;;;;;;;;;1.00;1.00;;;;;;;;5073546;28;9204;-87
2023/03/23 06:45:02;;;;;;;;;1.33;1.33;;;;;;;;5078006;28;9298;-78
2023/03/23 06:47:31;;;;;;;;;1.00;1.00;;;;;;;;5073427;28;9066;-75
2023/03/23 06:49:58;;;;;;;;;1.00;1.00;;;;;;;;5073684;28;8998;-78
2023/03/23 06:52:26;;;;;;;;;1.00;1.00;;;;;;;;5070538;28;9870;-78
2023/03/23 06:54:55;;;;;;;;;1.00;1.00;;;;;;;;5070637;28;9070;-79
2023/03/23 06:57:22;;;;;;;;;1.00;1.00;;;;;;;;5071634;28;9010;-75
2023/03/23 06:59:49;;;;;;;;;1.33;1.33;;;;;;;;5071374;28;9119;-78
2023/03/23 07:02:19;;;;;;;;;1.00;1.00;;;;;;;;5072935;28;9883;-73
2023/03/23 07:04:46;;;;;;;;;1.00;1.00;;;;;;;;5072206;28;9038;-77
2023/03/23 07:07:18;;;;;;;;;2.00;0.33;;;;;;;;5072791;28;9114;-80
2023/03/23 07:09:45;;;;;;;;;1.00;1.00;;;;;;;;5070650;28;10009;-76
2023/03/23 07:12:14;;;;;;;;;3.00;1.00;;;;;;;;5063103;28;9207;-77
2023/03/23 07:14:41;;;;;;;;;1.00;1.00;;;;;;;;5067855;28;9775;-73
2023/03/23 07:17:09;;;;;;;;;1.00;1.00;;;;;;;;5067402;28;9011;-73
2023/03/23 07:19:37;;;;;;;;;1.00;1.00;;;;;;;;5065505;28;9012;-75
2023/03/23 07:22:05;;;;;;;;;1.00;1.00;;;;;;;;5068098;28;9008;-91
2023/03/23 07:24:33;;;;;;;;;1.00;1.00;;;;;;;;5068714;28;8954;-72
2023/03/23 07:27:00;;;;;;;;;3.00;1.67;;;;;;;;5068168;28;9064;-73
2023/03/23 07:29:29;;;;;;;;;1.00;1.00;;;;;;;;5069633;28;9028;-74
2023/03/23 07:31:57;;;;;;;;;1.00;1.00;;;;;;;;5068852;28;9835;-73
2023/03/23 07:34:24;;;;;;;;;2.67;2.67;;;;;;;;5067690;28;9255;-74
2023/03/23 07:36:52;;;;;;;;;3.33;3.33;;;;;;;;5068813;28;10152;-74
2023/03/23 07:39:19;;;;;;;;;5.00;2.00;;;;;;;;5068470;28;9330;-79
2023/03/23 07:41:47;;;;;;;;;2.00;2.00;;;;;;;;5067023;28;9130;-75
2023/03/23 07:44:15;;;;;;;;;3.00;3.00;;;;;;;;5067739;28;9194;-73
2023/03/23 07:46:44;;;;;;;;;1.67;1.00;;;;;;;;5068592;28;9041;-75
2023/03/23 07:49:11;;;;;;;;;1.00;1.00;;;;;;;;5067936;28;9000;-80
2023/03/23 07:51:39;;;;;;;;;1.67;1.67;;;;;;;;5067975;28;8939;-72
2023/03/23 07:54:07;;;;;;;;;1.00;1.00;;;;;;;;5068002;28;8947;-72
2023/03/23 07:56:35;;;;;;;;;2.00;0.25;;;;;;;;5067658;28;9015;-75
2023/03/23 07:59:02;;;;;;;;;1.00;1.00;;;;;;;;5075357;28;8842;-73
2023/03/23 08:01:29;;;;;;;;;1.67;1.67;;;;;;;;5066424;28;9037;-75
2023/03/23 08:03:59;;;;;;;;;0.50;0.50;;;;;;;;5061924;28;9757;-72
2023/03/23 08:06:26;;;;;;;;;2.00;2.00;;;;;;;;5066408;28;9691;-82
2023/03/23 08:08:54;;;;;;;;;1.00;1.00;;;;;;;;5067293;28;9745;-78
2023/03/23 08:11:22;;;;;;;;;1.00;1.00;;;;;;;;5068526;28;8864;-73
2023/03/23 08:13:49;;;;;;;;;1.25;1.25;;;;;;;;5069031;28;8856;-76
2023/03/23 08:16:18;;;;;;;;;2.75;1.25;;;;;;;;5068382;28;8871;-76
2023/03/23 08:18:46;;;;;;;;;1.67;1.33;;;;;;;;5068490;28;8851;-77
2023/03/23 08:21:15;;;;;;;;;1.67;1.67;;;;;;;;5063897;28;8937;-73
2023/03/23 08:23:43;;;;;;;;;1.00;1.00;;;;;;;;5068037;28;8999;-81
2023/03/23 08:26:11;;;;;;;;;1.00;1.00;;;;;;;;5068383;28;9630;-79
2023/03/23 08:28:39;;;;;;;;;1.00;1.00;;;;;;;;5068303;28;8842;-80
2023/03/23 08:31:08;;;;;;;;;2.00;2.00;;;;;;;;5067168;28;8890;-74
2023/03/23 08:33:36;;;;;;;;;1.67;1.33;;;;;;;;5068151;28;8866;-76
2023/03/23 08:36:04;;;;;;;;;3.67;2.00;;;;;;;;5068627;28;8939;-81
2023/03/23 08:38:32;;;;;;;;;3.67;2.00;;;;;;;;5068273;28;9017;-80
2023/03/23 08:41:01;;;;;;;;;3.00;1.33;;;;;;;;5068515;28;8954;-80
2023/03/23 08:43:28;;;;;;;;;3.00;3.00;;;;;;;;5068241;28;8951;-80
2023/03/23 08:45:55;;;;;;;;;2.67;2.00;;;;;;;;5068644;28;9100;-80
2023/03/23 08:48:23;;;;;;;;;2.00;2.00;;;;;;;;5068657;28;9022;-75
2023/03/23 08:50:51;;;;;;;;;1.00;1.00;;;;;;;;5068295;28;9087;-80
2023/03/23 08:53:20;;;;;;;;;3.00;3.00;;;;;;;;5070162;28;9001;-80
2023/03/23 08:55:49;;;;;;;;;2.67;2.67;;;;;;;;5071893;28;8942;-79
2023/03/23 08:58:17;;;;;;;;;4.00;2.67;;;;;;;;5072820;28;9057;-81
2023/03/23 09:00:45;;;;;;;;;4.00;2.67;;;;;;;;5073274;28;8970;-80
2023/03/23 09:03:13;;;;;;;;;4.50;4.50;;;;;;;;5072279;28;9022;-79
2023/03/23 09:05:45;;;;;;;;;2.50;2.50;;;;;;;;5068680;28;8975;-79
2023/03/23 09:08:13;;;;;;;;;5.33;3.00;;;;;;;;5067484;28;8949;-81
2023/03/23 09:10:40;;;;;;;;;1.50;1.50;;;;;;;;5067519;28;9018;-77
2023/03/23 09:13:09;;;;;;;;;3.00;3.00;;;;;;;;5067557;28;8894;-80
2023/03/23 09:15:36;;;;;;;;;3.00;3.00;;;;;;;;5067160;28;9611;-78
2023/03/23 09:18:04;;;;;;;;;3.50;3.00;;;;;;;;5067596;28;9778;-75
2023/03/23 09:20:32;;;;;;;;;2.00;2.00;;;;;;;;5067434;28;8844;-84
2023/03/23 09:22:59;;;;;;;;;4.25;2.75;;;;;;;;5067439;28;8945;-80
2023/03/23 09:25:28;;;;;;;;;3.25;2.25;;;;;;;;5067860;28;8852;-82
2023/03/23 09:27:59;;;;;;;;;2.50;2.25;;;;;;;;5067723;28;8871;-81
2023/03/23 09:30:29;;;;;;;;;3.00;3.00;;;;;;;;5067137;28;8757;-79
2023/03/23 09:32:57;;;;;;;;;3.00;2.50;;;;;;;;5067437;28;8868;-79
2023/03/23 09:35:24;;;;;;;;;4.25;3.75;;;;;;;;5067740;28;8840;-76
2023/03/23 09:37:53;;;;;;;;;1.00;1.00;;;;;;;;5068037;28;8844;-81
2023/03/23 09:40:23;;;;;;;;;3.00;3.00;;;;;;;;5062077;28;8837;-79
2023/03/23 09:43:06;;;;;;;;;3.50;2.00;;;;;;;;5064563;28;8898;-76
2023/03/23 09:45:39;;;;;;;;;4.25;4.25;;;;;;;;5062055;28;8832;-77
2023/03/23 09:48:21;;;;;;;;;3.00;3.00;;;;;;;;5072041;28;8862;-73
2023/03/23 09:50:52;;;;;;;;;3.00;3.00;;;;;;;;5071242;28;8844;-78
2023/03/23 09:53:22;;;;;;;;;3.75;3.75;;;;;;;;5071846;28;8868;-78
2023/03/23 09:55:50;;;;;;;;;2.00;2.00;;;;;;;;5070940;28;8868;-79
2023/03/23 09:58:23;;;;;;;;;6.00;3.25;;;;;;;;5071083;28;8840;-74
2023/03/23 10:01:04;;;;;;;;;1.00;1.00;;;;;;;;5065101;28;8800;-74
2023/03/23 10:03:34;;;;;;;;;3.00;3.00;;;;;;;;5070806;28;8840;-78
2023/03/23 10:06:01;;;;;;;;;2.00;2.00;;;;;;;;5070898;28;9607;-74
2023/03/23 10:08:32;;;;;;;;;2.75;2.00;;;;;;;;5070733;28;9587;-78
2023/03/23 10:11:03;;;;;;;;;2.25;2.25;;;;;;;;5071257;28;8876;-78
2023/03/23 10:13:47;;;;;;;;;4.00;2.25;;;;;;;;5070955;28;8883;-74
2023/03/23 10:16:19;;;;;;;;;2.25;2.25;;;;;;;;5059948;28;8890;-79
2023/03/23 10:18:53;;;;;;;;;1.50;1.50;;;;;;;;5070460;28;8859;-82
2023/03/23 10:21:23;;;;;;;;;1.25;1.25;;;;;;;;5062699;28;8860;-78
2023/03/23 10:23:58;;;;;;;;;1.00;1.00;;;;;;;;5070567;28;8860;-79
2023/03/23 10:26:38;;;;;;;;;2.25;1.75;;;;;;;;5070807;28;8871;-78
2023/03/23 10:29:13;;;;;;;;;1.00;1.00;;;;;;;;5070804;28;8967;-79
2023/03/23 10:31:48;;;;;;;;;1.00;1.00;;;;;;;;5070244;28;8781;-78
2023/03/23 10:34:18;;;;;;;;;1.75;1.75;;;;;;;;5070751;28;8860;-78
2023/03/23 10:36:58;;;;;;;;;2.00;2.00;;;;;;;;5070208;28;8867;-78
2023/03/23 10:39:29;;;;;;;;;2.75;1.00;;;;;;;;5071422;28;8876;-79
2023/03/23 10:41:57;;;;;;;;;2.50;2.00;;;;;;;;5071207;28;8878;-79
2023/03/23 10:44:26;;;;;;;;;1.00;1.00;;;;;;;;5072127;28;8856;-77
2023/03/23 10:47:00;;;;;;;;;0.00;0.00;;;;;;;;5073029;28;8930;-80
2023/03/23 10:49:47;;;;;;;;;2.75;1.00;;;;;;;;5074994;28;9758;-81
2023/03/23 10:52:28;;;;;;;;;1.00;1.00;;;;;;;;5076965;28;8862;-79
2023/03/23 10:54:58;;;;;;;;;0.00;0.00;;;;;;;;5074087;28;8844;-81
2023/03/23 10:57:28;;;;;;;;;0.00;0.00;;;;;;;;5070984;28;8852;-79
2023/03/23 11:00:01;;;;;;;;;3.25;2.00;;;;;;;;5070192;28;8983;-79
2023/03/23 11:02:29;;;;;;;;;2.00;1.25;;;;;;;;5069317;28;8803;-84
2023/03/23 11:07:29;;;;;;;;;2.25;1.75;;;;;;;;5149062;27;13435;-75
2023/03/23 11:09:58;;;;;;;;;0.75;0.75;;;;;;;;5137738;27;8878;-73
2023/03/23 11:12:26;;;;;;;;;2.75;1.50;;;;;;;;5126802;27;8869;-76
2023/03/23 11:14:54;;;;;;;;;1.00;1.00;;;;;;;;5126031;27;8856;-76
2023/03/23 11:17:24;;;;;;;;;0.00;0.00;;;;;;;;5122937;27;8846;-74
2023/03/23 11:19:52;;;;;;;;;2.25;1.25;;;;;;;;5133663;27;8864;-74
2023/03/23 11:22:25;;;;;;;;;0.25;0.25;;;;;;;;5135272;27;9495;-74
2023/03/23 11:24:55;;;;;;;;;1.25;1.25;;;;;;;;5125683;27;8852;-77
2023/03/23 11:27:24;;;;;;;;;1.00;1.00;;;;;;;;5139804;27;8874;-75
2023/03/23 11:29:53;;;;;;;;;1.00;1.00;;;;;;;;5144285;27;9709;-74
2023/03/23 11:32:24;;;;;;;;;1.00;1.00;;;;;;;;5100280;27;8789;-78
2023/03/23 11:34:56;;;;;;;;;1.00;1.00;;;;;;;;5094546;28;8826;-73
2023/03/23 11:37:28;;;;;;;;;0.25;0.25;;;;;;;;5104916;28;8947;-72
2023/03/23 11:39:59;;;;;;;;;1.00;1.00;;;;;;;;5104444;28;9042;-75
2023/03/23 11:42:35;;;;;;;;;2.00;2.00;;;;;;;;5102417;28;8973;-75
2023/03/23 11:45:15;;;;;;;;;1.00;1.00;;;;;;;;5092363;28;8864;-79
2023/03/23 11:47:48;;;;;;;;;2.00;2.00;;;;;;;;5085873;28;8848;-78
2023/03/23 11:50:19;;;;;;;;;1.00;1.00;;;;;;;;5086753;28;9691;-76
2023/03/23 11:52:53;;;;;;;;;2.00;1.00;;;;;;;;5085356;28;9668;-76
2023/03/23 11:55:26;;;;;;;;;3.50;2.00;;;;;;;;5091052;28;8896;-77
2023/03/23 11:57:54;;;;;;;;;3.00;2.00;;;;;;;;5104492;28;8846;-78
2023/03/23 12:00:23;;;;;;;;;3.00;1.25;;;;;;;;5089009;28;8963;-78
2023/03/23 12:02:56;;;;;;;;;2.00;1.00;;;;;;;;5083692;28;8861;-79
2023/03/23 12:05:40;;;;;;;;;2.75;1.00;;;;;;;;5071918;28;8838;-79
2023/03/23 12:08:21;;;;;;;;;1.00;1.00;;;;;;;;5081694;28;8818;-78
2023/03/23 12:10:56;;;;;;;;;1.00;1.00;;;;;;;;5076330;28;8834;-74
2023/03/23 12:13:36;;;;;;;;;1.00;1.00;;;;;;;;5078857;28;8983;-76
2023/03/23 12:16:12;;;;;;;;;1.50;1.50;;;;;;;;5065737;28;8847;-76
2023/03/23 12:18:50;;;;;;;;;2.00;2.00;;;;;;;;5070175;28;8982;-78
2023/03/23 12:21:23;;;;;;;;;0.50;0.00;;;;;;;;5056051;28;8846;-73
2023/03/23 12:23:55;;;;;;;;;1.75;1.75;;;;;;;;5069799;28;8837;-80
2023/03/23 12:26:26;;;;;;;;;1.25;1.25;;;;;;;;5067352;28;8848;-77
2023/03/23 12:29:13;;;;;;;;;1.50;1.50;;;;;;;;5070573;28;8838;-76
2023/03/23 12:31:48;;;;;;;;;1.25;1.25;;;;;;;;5069861;28;8856;-79
2023/03/23 12:34:23;;;;;;;;;1.00;1.00;;;;;;;;5066539;28;8953;-77
2023/03/23 12:37:03;;;;;;;;;2.00;2.00;;;;;;;;5073858;28;8849;-78
2023/03/23 12:39:57;;;;;;;;;3.00;3.00;;;;;;;;5068363;28;8844;-74
2023/03/23 12:42:34;;;;;;;;;1.00;1.00;;;;;;;;5044585;28;8884;-74
2023/03/23 12:45:09;;;;;;;;;2.00;0.25;;;;;;;;5071040;28;8869;-77
2023/03/23 12:47:40;;;;;;;;;1.00;1.00;;;;;;;;5069840;28;8826;-75
2023/03/23 12:50:16;;;;;;;;;2.00;2.00;;;;;;;;5053154;28;8860;-75
2023/03/23 12:52:49;;;;;;;;;0.25;0.25;;;;;;;;5065497;28;8889;-76
2023/03/23 12:55:21;;;;;;;;;3.50;2.00;;;;;;;;5059315;28;8826;-74
2023/03/23 12:57:58;;;;;;;;;2.50;1.50;;;;;;;;5055796;28;8888;-74
2023/03/23 13:00:27;;;;;;;;;4.00;3.00;;;;;;;;5058126;28;8815;-74
2023/03/23 13:03:00;;;;;;;;;1.00;1.00;;;;;;;;5062716;28;8847;-73
2023/03/23 13:05:45;;;;;;;;;2.00;2.00;;;;;;;;5049870;28;8871;-73
2023/03/23 13:08:17;;;;;;;;;1.25;1.25;;;;;;;;5050225;28;8855;-72
2023/03/23 13:10:48;;;;;;;;;2.50;1.50;;;;;;;;5065379;28;8865;-74
2023/03/23 13:13:20;;;;;;;;;2.00;2.00;;;;;;;;5069578;28;8864;-73
2023/03/23 13:16:01;;;;;;;;;3.50;2.75;;;;;;;;5064091;28;8874;-74
2023/03/23 13:18:37;;;;;;;;;4.75;3.00;;;;;;;;5062795;28;8874;-75
2023/03/23 13:21:13;;;;;;;;;1.00;1.00;;;;;;;;5061844;28;9637;-76
2023/03/23 13:23:43;;;;;;;;;1.25;1.25;;;;;;;;5068126;28;8873;-76
2023/03/23 13:26:12;;;;;;;;;1.00;1.00;;;;;;;;5063105;28;8888;-76
2023/03/23 13:29:01;;;;;;;;;1.75;1.75;;;;;;;;5059250;28;8833;-76
2023/03/23 13:31:33;;;;;;;;;3.00;1.50;;;;;;;;5066541;28;8794;-75
2023/03/23 13:34:05;;;;;;;;;1.00;1.00;;;;;;;;5061834;28;8918;-73
2023/03/23 13:36:36;;;;;;;;;2.00;2.00;;;;;;;;5067960;28;8822;-73
2023/03/23 13:39:07;;;;;;;;;3.00;3.00;;;;;;;;5068316;28;8857;-73
2023/03/23 13:41:35;;;;;;;;;3.00;2.00;;;;;;;;5058801;28;8949;-73
2023/03/23 13:44:21;;;;;;;;;2.00;2.00;;;;;;;;5050063;28;8844;-73
2023/03/23 13:47:16;;;;;;;;;1.00;1.00;;;;;;;;5050340;28;8824;-73
2023/03/23 13:49:48;;;;;;;;;2.00;2.00;;;;;;;;5063353;28;8910;-73
2023/03/23 13:52:23;;;;;;;;;2.25;2.25;;;;;;;;5059928;28;8840;-73
2023/03/23 13:54:51;;;;;;;;;1.00;1.00;;;;;;;;5063274;28;8847;-73
2023/03/23 13:57:37;;;;;;;;;2.00;2.00;;;;;;;;5050208;28;8848;-73
2023/03/23 14:00:37;;;;;;;;;5.00;3.00;;;;;;;;5057059;28;8846;-73
2023/03/23 14:03:06;;;;;;;;;3.00;1.50;;;;;;;;5055334;28;8854;-73
2023/03/23 14:05:36;;;;;;;;;3.25;2.00;;;;;;;;5067118;28;9670;-73
2023/03/23 14:08:11;;;;;;;;;3.25;2.00;;;;;;;;5063793;28;8856;-73
2023/03/23 14:10:42;;;;;;;;;3.50;2.00;;;;;;;;5064578;28;8949;-74
2023/03/23 14:13:17;;;;;;;;;2.75;2.75;;;;;;;;5068055;28;8854;-72
2023/03/23 14:15:56;;;;;;;;;3.50;3.25;;;;;;;;5067360;28;8964;-74
2023/03/23 14:18:25;;;;;;;;;3.75;3.00;;;;;;;;5068264;28;8854;-74
2023/03/23 14:20:52;;;;;;;;;5.75;3.00;;;;;;;;5067752;28;8853;-73
2023/03/23 14:23:20;;;;;;;;;3.25;3.25;;;;;;;;5068505;28;8853;-74
2023/03/23 14:25:56;;;;;;;;;3.75;3.75;;;;;;;;5067857;28;8858;-74
2023/03/23 14:28:23;;;;;;;;;5.00;1.75;;;;;;;;5069105;28;8876;-74
2023/03/23 14:30:54;;;;;;;;;5.00;3.00;;;;;;;;5074899;28;8866;-74
2023/03/23 14:33:22;;;;;;;;;4.00;4.00;;;;;;;;5074492;28;8935;-74
2023/03/23 14:35:49;;;;;;;;;3.50;2.50;;;;;;;;5089452;28;8820;-75
2023/03/23 14:38:19;;;;;;;;;2.50;1.75;;;;;;;;5083700;28;9706;-74
2023/03/23 14:40:47;;;;;;;;;3.25;3.25;;;;;;;;5083128;28;8901;-76
2023/03/23 14:43:18;;;;;;;;;1.25;1.25;;;;;;;;5087613;28;8856;-75
2023/03/23 14:45:46;;;;;;;;;5.50;3.00;;;;;;;;5086958;28;8858;-74
2023/03/23 14:48:16;;;;;;;;;3.50;2.00;;;;;;;;5087722;28;8836;-73
2023/03/23 14:50:50;;;;;;;;;3.00;3.00;;;;;;;;5087607;28;8824;-77
2023/03/23 14:53:22;;;;;;;;;4.25;2.00;;;;;;;;5087229;28;8866;-74
2023/03/23 14:55:51;;;;;;;;;4.50;2.50;;;;;;;;5083134;28;8844;-76
2023/03/23 14:58:20;;;;;;;;;5.50;3.00;;;;;;;;5083435;28;8858;-75
2023/03/23 15:00:50;;;;;;;;;5.25;4.25;;;;;;;;5080096;28;8805;-77
2023/03/23 15:03:20;;;;;;;;;3.25;2.75;;;;;;;;5067536;28;8850;-73
2023/03/23 15:05:49;;;;;;;;;2.00;2.00;;;;;;;;5065021;28;8838;-73
2023/03/23 15:08:20;;;;;;;;;6.75;3.00;;;;;;;;5060273;28;8935;-73
2023/03/23 15:10:54;;;;;;;;;3.50;3.00;;;;;;;;5066912;28;9022;-73
2023/03/23 15:13:21;;;;;;;;;6.00;3.25;;;;;;;;5067380;28;8862;-73
2023/03/23 15:15:48;;;;;;;;;3.50;2.00;;;;;;;;5056420;28;9628;-74
2023/03/23 15:18:30;;;;;;;;;5.25;3.00;;;;;;;;5067031;28;8853;-74
2023/03/23 15:20:58;;;;;;;;;3.25;3.00;;;;;;;;5064607;28;8846;-74